createdAt,value
2022-10-28T09:00:25.482Z,12.78
2022-10-28T09:03:21.218Z,12.84
2022-10-28T09:05:59.351Z,12.93
2022-10-28T09:08:31.697Z,13.05
2022-10-28T09:11:34.147Z,13.16
2022-10-28T09:14:27.204Z,13.26
2022-10-28T09:17:19.154Z,13.37
2022-10-28T09:19:53.483Z,13.48
2022-10-28T09:22:40.930Z,13.56
2022-10-28T09:25:30.123Z,13.68
2022-10-28T09:28:25.166Z,13.75
2022-10-28T09:31:11.308Z,13.88
2022-10-28T09:33:58.156Z,13.94
2022-10-28T09:36:36.223Z,14.01
2022-10-28T09:39:08.639Z,14.09
2022-10-28T09:41:43.893Z,14.19
2022-10-28T09:44:24.097Z,14.27
2022-10-28T09:47:01.477Z,14.36
2022-10-28T09:49:37.938Z,14.44
2022-10-28T09:52:21.041Z,14.52
2022-10-28T09:54:53.756Z,14.65
2022-10-28T09:57:32.675Z,14.75
2022-10-28T10:00:01.772Z,14.85
2022-10-28T10:02:37.046Z,14.96
2022-10-28T10:05:17.698Z,15.05
2022-10-28T10:07:53.256Z,15.10
2022-10-28T10:10:31.593Z,15.18
2022-10-28T10:13:06.849Z,15.25
2022-10-28T10:15:41.521Z,15.36
2022-10-28T10:18:19.046Z,15.42
2022-10-28T10:20:53.512Z,15.51
2022-10-28T10:23:30.934Z,15.58
2022-10-28T10:26:08.129Z,15.65
2022-10-28T10:28:47.281Z,15.78
2022-10-28T10:31:23.781Z,15.83
2022-10-28T10:33:56.381Z,15.90
2022-10-28T10:36:31.593Z,15.99
2022-10-28T10:39:06.691Z,16.07
2022-10-28T10:41:37.709Z,16.17
2022-10-28T10:44:36.452Z,16.28
2022-10-28T10:47:33.181Z,16.38
2022-10-28T10:50:28.723Z,16.61
2022-10-28T10:53:01.572Z,16.69
2022-10-28T10:55:40.794Z,16.78
2022-10-28T10:58:22.211Z,16.87
2022-10-28T11:00:53.721Z,16.93
2022-10-28T11:03:29.461Z,17.01
2022-10-28T11:06:22.614Z,17.12
2022-10-28T11:08:59.640Z,17.23
2022-10-28T11:11:44.162Z,17.35
2022-10-28T11:14:25.578Z,17.45
2022-10-28T11:16:57.609Z,17.51
2022-10-28T11:19:32.765Z,17.55
2022-10-28T11:22:23.223Z,17.67
2022-10-28T11:25:36.917Z,17.73
2022-10-28T11:28:37.047Z,17.80
2022-10-28T11:31:36.414Z,17.84
2022-10-28T11:34:38.930Z,17.87
2022-10-28T11:37:20.159Z,17.89
2022-10-28T11:40:10.408Z,17.93
2022-10-28T11:42:53.481Z,17.96
2022-10-28T11:45:34.163Z,18.03
2022-10-28T11:48:21.866Z,18.06
2022-10-28T11:51:06.483Z,18.12
2022-10-28T11:54:31.635Z,18.19
2022-10-28T11:57:08.708Z,18.26
2022-10-28T12:00:24.878Z,18.42
2022-10-28T12:03:30.926Z,18.47
2022-10-28T12:06:12.202Z,18.48
2022-10-28T12:14:41.296Z,18.58
2022-10-28T12:17:21.332Z,18.62
2022-10-28T12:19:59.378Z,18.63
2022-10-28T12:22:35.295Z,18.69
2022-10-28T12:25:14.463Z,18.71
2022-10-28T12:27:48.547Z,18.71
2022-10-28T12:30:25.144Z,18.73
2022-10-28T12:33:01.638Z,18.75
2022-10-28T12:35:36.790Z,18.82
2022-10-28T12:38:15.088Z,18.86
2022-10-28T12:41:01.375Z,18.87
2022-10-28T12:43:38.316Z,18.95
2022-10-28T12:46:16.089Z,19.01
2022-10-28T12:48:57.018Z,19.04
2022-10-28T12:51:35.682Z,19.15
2022-10-28T12:54:23.003Z,19.17
2022-10-28T12:56:56.719Z,19.19
2022-10-28T12:59:36.472Z,19.22
2022-10-28T13:02:15.664Z,19.32
2022-10-28T13:04:46.433Z,19.35
2022-10-28T13:07:47.081Z,19.37
2022-10-28T13:10:29.947Z,19.38
2022-10-28T13:13:42.939Z,19.39
2022-10-28T13:16:46.535Z,19.40
2022-10-28T13:19:46.184Z,19.41
2022-10-28T13:22:55.097Z,19.42
2022-10-28T13:25:50.521Z,19.47
2022-10-28T13:28:23.389Z,19.47
2022-10-28T13:31:00.967Z,19.49
2022-10-28T13:33:34.764Z,19.50
2022-10-28T13:36:19.165Z,19.51
2022-10-28T13:39:02.989Z,19.52
2022-10-28T13:41:36.824Z,19.50
2022-10-28T13:44:31.258Z,19.51
2022-10-28T13:47:33.546Z,19.47
2022-10-28T13:50:37.648Z,19.46
2022-10-28T13:53:54.238Z,19.45
2022-10-28T13:56:51.181Z,19.45
2022-10-28T13:59:32.542Z,19.47
2022-10-28T14:02:34.326Z,19.46
2022-10-28T14:05:08.848Z,19.46
2022-10-28T14:07:52.516Z,19.49
2022-10-28T14:10:27.040Z,19.54
2022-10-28T14:13:02.178Z,19.57
2022-10-28T14:15:35.063Z,19.66
2022-10-28T14:18:15.939Z,19.70
2022-10-28T14:21:03.758Z,19.70
2022-10-28T14:24:32.908Z,19.71
2022-10-28T14:27:41.507Z,19.69
2022-10-28T14:30:24.095Z,19.68
2022-10-28T14:33:22.542Z,19.66
2022-10-28T14:36:15.876Z,19.63
2022-10-28T14:39:25.679Z,19.61
2022-10-28T14:42:21.322Z,19.56
2022-10-28T14:45:16.339Z,19.51
2022-10-28T14:48:18.674Z,19.49
2022-10-28T14:50:53.943Z,19.47
2022-10-28T14:53:33.825Z,19.44
2022-10-28T14:56:07.964Z,19.41
2022-10-28T14:58:43.502Z,19.35
2022-10-28T15:01:31.108Z,19.31
2022-10-28T15:04:05.107Z,19.31
2022-10-28T15:06:44.437Z,19.28
2022-10-28T15:09:21.825Z,19.26
2022-10-28T15:11:57.304Z,19.22
2022-10-28T15:14:34.781Z,19.18
2022-10-28T15:17:14.080Z,19.12
2022-10-28T15:19:44.950Z,19.14
2022-10-28T15:22:21.333Z,19.09
2022-10-28T15:25:01.381Z,19.07
2022-10-28T15:27:32.770Z,19.04
2022-10-28T15:30:04.311Z,19.00
2022-10-28T15:32:35.753Z,18.98
2022-10-28T15:35:40.654Z,18.91
2022-10-28T15:38:40.684Z,18.87
2022-10-28T15:41:43.061Z,18.82
2022-10-28T15:44:29.103Z,18.78
2022-10-28T15:46:58.992Z,18.74
2022-10-28T15:49:39.264Z,18.68
2022-10-28T15:52:39.323Z,18.63
2022-10-28T15:58:37.274Z,18.51
2022-10-28T16:01:27.597Z,18.48
2022-10-28T16:03:57.819Z,18.46
2022-10-28T16:06:31.675Z,18.42
2022-10-28T16:09:28.257Z,18.37
2022-10-28T16:12:02.075Z,18.34
2022-10-28T16:14:37.715Z,18.27
2022-10-28T16:17:15.771Z,18.22
2022-10-28T16:19:52.239Z,18.13
2022-10-28T16:22:22.432Z,18.10
2022-10-28T16:24:54.864Z,18.08
2022-10-28T16:27:33.976Z,18.03
2022-10-28T16:30:04.440Z,17.96
2022-10-28T16:32:40.992Z,17.93
2022-10-28T16:35:19.354Z,17.90
2022-10-28T16:37:54.750Z,17.87
2022-10-28T16:43:24.810Z,17.77
2022-10-28T16:46:00.550Z,17.74
2022-10-28T16:48:32.090Z,17.69
2022-10-28T16:51:05.390Z,17.65
2022-10-28T16:53:34.233Z,17.60
2022-10-28T16:56:09.844Z,17.56
2022-10-28T16:58:42.914Z,17.52
2022-10-28T17:01:13.203Z,17.50
2022-10-28T17:03:42.073Z,17.47
2022-10-28T17:06:11.585Z,17.45
2022-10-28T17:09:01.857Z,17.44
2022-10-28T17:14:01.513Z,17.38
2022-10-28T17:16:31.523Z,17.36
2022-10-28T17:19:00.291Z,17.27
2022-10-28T17:21:28.877Z,17.23
2022-10-28T17:24:03.852Z,17.20
2022-10-28T17:26:34.677Z,17.18
2022-10-28T17:29:11.765Z,17.10
2022-10-28T17:31:42.520Z,17.05
2022-10-28T17:34:18.447Z,17.04
2022-10-28T17:36:50.672Z,16.98
2022-10-28T17:39:25.697Z,16.94
2022-10-28T17:41:56.319Z,16.89
2022-10-28T17:44:25.466Z,16.87
2022-10-28T17:46:53.992Z,16.85
2022-10-28T17:49:22.584Z,16.81
2022-10-28T17:51:52.498Z,16.76
2022-10-28T17:56:55.569Z,16.69
2022-10-28T17:59:30.033Z,16.66
2022-10-28T18:01:59.338Z,16.62
2022-10-28T18:04:28.251Z,16.55
2022-10-28T18:07:04.441Z,16.50
2022-10-28T18:09:33.361Z,16.44
2022-10-28T18:12:03.105Z,16.44
2022-10-28T18:14:35.841Z,16.41
2022-10-28T18:17:04.505Z,16.40
2022-10-28T18:19:33.059Z,16.40
2022-10-28T18:22:02.770Z,16.32
2022-10-28T18:24:33.815Z,16.32
2022-10-28T18:27:06.131Z,16.29
2022-10-28T18:29:37.446Z,16.24
2022-10-28T18:32:06.945Z,16.20
2022-10-28T18:34:37.281Z,16.20
2022-10-28T18:37:11.005Z,16.18
2022-10-28T18:39:39.823Z,16.10
2022-10-28T18:42:16.581Z,16.07
2022-10-28T18:44:58.788Z,16.00
2022-10-28T18:47:28.675Z,16.02
2022-10-28T18:49:57.692Z,15.98
2022-10-28T18:52:26.593Z,15.95
2022-10-28T18:54:55.116Z,15.92
2022-10-28T18:57:29.264Z,15.83
2022-10-28T19:00:19.132Z,15.81
2022-10-28T19:02:48.790Z,15.76
2022-10-28T19:05:17.977Z,15.77
2022-10-28T19:07:46.836Z,15.74
2022-10-28T19:10:17.118Z,15.70
2022-10-28T19:12:50.601Z,15.67
2022-10-28T19:15:26.796Z,15.58
2022-10-28T19:17:57.008Z,15.54
2022-10-28T19:20:27.529Z,15.53
2022-10-28T19:22:56.197Z,15.53
2022-10-28T19:25:28.074Z,15.51
2022-10-28T19:28:00.025Z,15.46
2022-10-28T19:30:30.792Z,15.45
2022-10-28T19:33:05.028Z,15.43
2022-10-28T19:35:38.470Z,15.46
2022-10-28T19:38:08.925Z,15.44
2022-10-28T19:40:38.540Z,15.41
2022-10-28T19:43:07.343Z,15.38
2022-10-28T19:45:38.711Z,15.34
2022-10-28T19:48:07.673Z,15.32
2022-10-28T19:50:36.389Z,15.25
2022-10-28T19:53:05.203Z,15.20
2022-10-28T19:55:35.878Z,15.14
2022-10-28T19:58:04.399Z,15.10
2022-10-28T20:00:35.481Z,15.03
2022-10-28T20:03:07.047Z,15.07
2022-10-28T20:05:35.569Z,15.04
2022-10-28T20:08:04.095Z,14.99
2022-10-28T20:10:36.658Z,14.89
2022-10-28T20:13:05.774Z,14.89
2022-10-28T20:15:34.785Z,14.85
2022-10-28T20:18:05.803Z,14.85
2022-10-28T20:20:37.811Z,14.85
2022-10-28T20:23:06.316Z,14.85
2022-10-28T20:25:37.446Z,14.84
2022-10-28T20:28:06.415Z,14.81
2022-10-28T20:30:37.287Z,14.77
2022-10-28T20:33:07.196Z,14.76
2022-10-28T20:35:36.133Z,14.63
2022-10-28T20:38:04.945Z,14.64
2022-10-28T20:40:36.258Z,14.56
2022-10-28T20:43:05.472Z,14.55
2022-10-28T20:45:34.136Z,14.52
2022-10-28T20:48:02.734Z,14.50
2022-10-28T20:50:33.149Z,14.52
2022-10-28T20:53:04.322Z,14.48
2022-10-28T20:55:34.499Z,14.48
2022-10-28T20:58:04.445Z,14.39
2022-10-28T21:00:32.870Z,14.33
2022-10-28T21:03:02.101Z,14.37
2022-10-28T21:05:33.046Z,14.38
2022-10-28T21:08:02.028Z,14.38
2022-10-28T21:10:31.347Z,14.38
2022-10-28T21:13:01.346Z,14.38
2022-10-28T21:15:34.470Z,14.38
2022-10-28T21:18:07.827Z,14.36
2022-10-28T21:20:41.833Z,14.31
2022-10-28T21:23:17.104Z,14.25
2022-10-28T21:25:55.111Z,14.23
2022-10-28T21:28:24.856Z,14.23
2022-10-28T21:30:53.832Z,14.25
2022-10-28T21:33:25.682Z,14.24
2022-10-28T21:35:58.937Z,14.21
2022-10-28T21:38:30.175Z,14.18
2022-10-28T21:41:09.704Z,14.18
2022-10-28T21:43:42.692Z,14.15
2022-10-28T21:46:19.018Z,14.11
2022-10-28T21:48:48.141Z,14.10
2022-10-28T21:51:19.292Z,14.07
2022-10-28T21:53:48.649Z,14.05
2022-10-28T21:56:20.252Z,14.03
2022-10-28T21:58:52.046Z,14.02
2022-10-28T22:01:26.470Z,14.00
2022-10-28T22:03:57.491Z,14.01
2022-10-28T22:06:31.699Z,13.99
2022-10-28T22:09:03.441Z,14.00
2022-10-28T22:11:32.715Z,13.97
2022-10-28T22:14:06.880Z,13.90
2022-10-28T22:16:37.878Z,13.90
2022-10-28T22:19:09.108Z,13.91
2022-10-28T22:21:40.288Z,13.93
2022-10-28T22:24:13.566Z,13.90
2022-10-28T22:26:42.546Z,13.88
2022-10-28T22:29:12.222Z,13.88
2022-10-28T22:31:40.795Z,13.82
2022-10-28T22:34:11.675Z,13.84
2022-10-28T22:36:44.958Z,13.82
2022-10-28T22:39:13.524Z,13.81
2022-10-28T22:41:58.044Z,13.82
2022-10-28T22:44:27.553Z,13.82
2022-10-28T22:46:56.752Z,13.81
2022-10-28T22:49:25.324Z,13.79
2022-10-28T22:51:56.938Z,13.76
2022-10-28T22:54:25.441Z,13.71
2022-10-28T22:56:54.669Z,13.69
2022-10-28T22:59:28.794Z,13.61
2022-10-28T23:01:58.084Z,13.51
2022-10-28T23:04:26.755Z,13.55
2022-10-28T23:06:56.723Z,13.56
2022-10-28T23:09:26.703Z,13.53
2022-10-28T23:11:55.475Z,13.45
2022-10-28T23:14:24.327Z,13.44
2022-10-28T23:16:52.916Z,13.40
2022-10-28T23:19:21.775Z,13.39
2022-10-28T23:21:50.279Z,13.36
2022-10-28T23:24:23.318Z,13.34
2022-10-28T23:26:52.089Z,13.31
2022-10-28T23:29:21.145Z,13.28
2022-10-28T23:31:52.368Z,13.32
2022-10-28T23:34:22.168Z,13.34
2022-10-28T23:36:54.201Z,13.30
2022-10-28T23:39:26.958Z,13.32
2022-10-28T23:41:55.750Z,13.32
2022-10-28T23:44:24.563Z,13.33
2022-10-28T23:46:56.828Z,13.33
2022-10-28T23:49:26.754Z,13.34
2022-10-28T23:51:55.280Z,13.30
2022-10-28T23:54:32.672Z,13.29
2022-10-28T23:57:05.340Z,13.30
2022-10-28T23:59:34.154Z,13.22
